ARE4334 SKRG-SKMR
Flight info
| Callsign | ARE4334 |
|---|---|
| Flight time | 0h 30m |
| Altitude | 20000 |
| Route | BUTAL3A BUTAL BUTAL2E |
| Aircraft | A320/M-SDE3FGHIRWY/LB1 |
Departure
| Time | 2026-05-09 02:48 |
|---|---|
| Airport | Jose Maria Córdova International Airport (SKRG) |
Arrival
| Time | 2026-05-09 03:19 |
|---|---|
| Airport | Los Garzones Airport (SKMR) |
| Time | Latitude | Longitude | Altitude | Speed | Heading |
|---|---|---|---|---|---|
| 2026-05-09 02:25 | 6.16958 | -75.42835 | 7018 ft | 0 kts | 345° |
| 2026-05-09 02:36 | 6.16938 | -75.42831 | 7020 ft | 4 kts | 2° |
| 2026-05-09 02:36 | 6.16915 | -75.42838 | 7019 ft | 4 kts | 46° |
| 2026-05-09 02:37 | 6.16902 | -75.42861 | 7020 ft | 4 kts | 76° |
| 2026-05-09 02:37 | 6.16896 | -75.42883 | 7020 ft | 2 kts | 76° |
| 2026-05-09 02:37 | 6.16902 | -75.42860 | 7020 ft | 4 kts | 76° |
| 2026-05-09 02:37 | 6.16909 | -75.42834 | 7018 ft | 4 kts | 76° |
| 2026-05-09 02:38 | 6.16915 | -75.42810 | 7017 ft | 1 kts | 76° |
| 2026-05-09 02:40 | 6.16919 | -75.42796 | 7019 ft | 3 kts | 73° |
| 2026-05-09 02:40 | 6.16927 | -75.42776 | 7019 ft | 3 kts | 66° |
| 2026-05-09 02:40 | 6.16940 | -75.42750 | 7018 ft | 6 kts | 61° |
| 2026-05-09 02:40 | 6.16972 | -75.42706 | 7019 ft | 8 kts | 45° |
| 2026-05-09 02:41 | 6.17015 | -75.42672 | 7019 ft | 8 kts | 34° |
| 2026-05-09 02:41 | 6.17045 | -75.42632 | 7017 ft | 7 kts | 71° |
| 2026-05-09 02:41 | 6.17039 | -75.42591 | 7019 ft | 4 kts | 125° |
| 2026-05-09 02:41 | 6.17021 | -75.42576 | 7018 ft | 4 kts | 142° |
| 2026-05-09 02:42 | 6.16990 | -75.42556 | 7018 ft | 7 kts | 148° |
| 2026-05-09 02:42 | 6.16940 | -75.42525 | 7019 ft | 10 kts | 150° |
| 2026-05-09 02:42 | 6.16876 | -75.42490 | 7015 ft | 11 kts | 160° |
| 2026-05-09 02:42 | 6.16795 | -75.42484 | 7013 ft | 13 kts | 179° |
| 2026-05-09 02:43 | 6.16698 | -75.42484 | 7010 ft | 15 kts | 179° |
| 2026-05-09 02:43 | 6.16583 | -75.42484 | 7003 ft | 17 kts | 181° |
| 2026-05-09 02:43 | 6.16462 | -75.42483 | 6995 ft | 19 kts | 180° |
| 2026-05-09 02:43 | 6.16317 | -75.42482 | 6983 ft | 22 kts | 181° |
| 2026-05-09 02:44 | 6.16166 | -75.42475 | 6980 ft | 22 kts | 180° |
| 2026-05-09 02:44 | 6.16036 | -75.42478 | 6984 ft | 19 kts | 180° |
| 2026-05-09 02:44 | 6.15897 | -75.42477 | 6982 ft | 21 kts | 180° |
| 2026-05-09 02:44 | 6.15747 | -75.42477 | 6980 ft | 22 kts | 179° |
| 2026-05-09 02:45 | 6.15604 | -75.42475 | 6979 ft | 20 kts | 179° |
| 2026-05-09 02:45 | 6.15464 | -75.42475 | 6979 ft | 21 kts | 180° |
| 2026-05-09 02:45 | 6.15324 | -75.42475 | 6978 ft | 20 kts | 179° |
| 2026-05-09 02:45 | 6.15186 | -75.42473 | 6978 ft | 20 kts | 180° |
| 2026-05-09 02:46 | 6.15047 | -75.42473 | 6977 ft | 17 kts | 180° |
| 2026-05-09 02:46 | 6.14954 | -75.42475 | 6977 ft | 13 kts | 181° |
| 2026-05-09 02:46 | 6.14902 | -75.42418 | 6977 ft | 13 kts | 92° |
| 2026-05-09 02:46 | 6.14931 | -75.42335 | 6977 ft | 14 kts | 38° |
| 2026-05-09 02:47 | 6.15022 | -75.42308 | 6978 ft | 14 kts | 5° |
| 2026-05-09 02:47 | 6.15116 | -75.42308 | 6979 ft | 14 kts | 2° |
| 2026-05-09 02:47 | 6.15265 | -75.42307 | 6980 ft | 44 kts | 360° |
| 2026-05-09 02:47 | 6.15818 | -75.42308 | 6980 ft | 112 kts | 359° |
| 2026-05-09 02:48 | 6.16781 | -75.42314 | 7015 ft | 162 kts | 359° |
| 2026-05-09 02:48 | 6.17979 | -75.42320 | 7442 ft | 174 kts | 1° |
| 2026-05-09 02:48 | 6.19191 | -75.42318 | 8145 ft | 174 kts | 2° |
| 2026-05-09 02:48 | 6.20430 | -75.42325 | 8422 ft | 186 kts | 1° |
| 2026-05-09 02:49 | 6.21791 | -75.42336 | 8559 ft | 206 kts | 0° |
| 2026-05-09 02:49 | 6.23298 | -75.42348 | 8695 ft | 228 kts | 1° |
| 2026-05-09 02:49 | 6.24976 | -75.42360 | 8854 ft | 253 kts | 1° |
| 2026-05-09 02:49 | 6.26819 | -75.42371 | 9110 ft | 276 kts | 1° |
| 2026-05-09 02:50 | 6.28798 | -75.42381 | 9524 ft | 290 kts | 1° |
| 2026-05-09 02:50 | 6.30847 | -75.42392 | 10126 ft | 299 kts | 1° |
| 2026-05-09 02:50 | 6.32958 | -75.42407 | 10485 ft | 304 kts | 1° |
| 2026-05-09 02:50 | 6.35074 | -75.42416 | 11205 ft | 304 kts | 1° |
| 2026-05-09 02:51 | 6.37196 | -75.42402 | 11866 ft | 305 kts | 2° |
| 2026-05-09 02:51 | 6.39325 | -75.42379 | 12531 ft | 307 kts | 2° |
| 2026-05-09 02:51 | 6.41472 | -75.42353 | 13181 ft | 310 kts | 2° |
| 2026-05-09 02:51 | 6.43640 | -75.42330 | 13836 ft | 313 kts | 1° |
| 2026-05-09 02:52 | 6.45800 | -75.42347 | 14383 ft | 316 kts | 0° |
| 2026-05-09 02:52 | 6.48037 | -75.42398 | 14939 ft | 319 kts | 359° |
| 2026-05-09 02:52 | 6.50234 | -75.42462 | 15482 ft | 322 kts | 359° |
| 2026-05-09 02:52 | 6.52481 | -75.42528 | 16023 ft | 325 kts | 359° |
| 2026-05-09 02:53 | 6.54754 | -75.42590 | 16568 ft | 327 kts | 359° |
| 2026-05-09 02:53 | 6.57052 | -75.42654 | 16942 ft | 337 kts | 359° |
| 2026-05-09 02:53 | 6.59455 | -75.42717 | 17060 ft | 353 kts | 359° |
| 2026-05-09 02:53 | 6.61965 | -75.42778 | 17201 ft | 368 kts | 359° |
| 2026-05-09 02:54 | 6.64563 | -75.42838 | 17487 ft | 377 kts | 359° |
| 2026-05-09 02:54 | 6.67204 | -75.42899 | 17927 ft | 381 kts | 358° |
| 2026-05-09 02:54 | 6.69870 | -75.42961 | 18397 ft | 385 kts | 358° |
| 2026-05-09 02:54 | 6.72559 | -75.43024 | 18811 ft | 388 kts | 358° |
| 2026-05-09 02:55 | 6.75266 | -75.43087 | 19257 ft | 390 kts | 358° |
| 2026-05-09 02:55 | 6.77991 | -75.43152 | 19680 ft | 393 kts | 358° |
| 2026-05-09 02:55 | 6.80739 | -75.43221 | 20130 ft | 396 kts | 359° |
| 2026-05-09 02:55 | 6.83472 | -75.43289 | 20578 ft | 399 kts | 359° |
| 2026-05-09 02:56 | 6.86253 | -75.43356 | 21031 ft | 401 kts | 359° |
| 2026-05-09 02:56 | 6.89058 | -75.43423 | 21482 ft | 404 kts | 359° |
| 2026-05-09 02:56 | 6.91878 | -75.43490 | 21866 ft | 407 kts | 359° |
| 2026-05-09 02:56 | 6.94710 | -75.43558 | 21992 ft | 406 kts | 359° |
| 2026-05-09 02:57 | 6.97496 | -75.43624 | 22018 ft | 398 kts | 360° |
| 2026-05-09 02:57 | 7.00262 | -75.43687 | 22017 ft | 396 kts | 359° |
| 2026-05-09 02:57 | 7.03019 | -75.43751 | 22018 ft | 396 kts | 359° |
| 2026-05-09 02:57 | 7.05772 | -75.43819 | 22019 ft | 396 kts | 359° |
| 2026-05-09 02:58 | 7.08522 | -75.43887 | 21987 ft | 395 kts | 359° |
| 2026-05-09 02:58 | 7.11273 | -75.43954 | 21988 ft | 395 kts | 360° |
| 2026-05-09 02:58 | 7.14023 | -75.44019 | 21988 ft | 395 kts | 360° |
| 2026-05-09 02:58 | 7.16773 | -75.44085 | 21988 ft | 395 kts | 359° |
| 2026-05-09 02:59 | 7.19522 | -75.44153 | 21990 ft | 395 kts | 359° |
| 2026-05-09 02:59 | 7.22273 | -75.44217 | 21992 ft | 395 kts | 359° |
| 2026-05-09 02:59 | 7.24993 | -75.44279 | 21991 ft | 396 kts | 360° |
| 2026-05-09 02:59 | 7.27745 | -75.44340 | 21991 ft | 396 kts | 359° |
| 2026-05-09 03:00 | 7.30496 | -75.44403 | 21992 ft | 396 kts | 359° |
| 2026-05-09 03:00 | 7.33247 | -75.44467 | 21993 ft | 396 kts | 360° |
| 2026-05-09 03:00 | 7.36002 | -75.44536 | 21968 ft | 396 kts | 360° |
| 2026-05-09 03:00 | 7.38760 | -75.44606 | 21970 ft | 396 kts | 360° |
| 2026-05-09 03:01 | 7.41517 | -75.44674 | 21973 ft | 396 kts | 360° |
| 2026-05-09 03:01 | 7.44270 | -75.44741 | 21972 ft | 395 kts | 360° |
| 2026-05-09 03:01 | 7.47023 | -75.44809 | 21972 ft | 395 kts | 359° |
| 2026-05-09 03:01 | 7.49775 | -75.44876 | 21974 ft | 395 kts | 360° |
| 2026-05-09 03:02 | 7.52523 | -75.44942 | 21942 ft | 395 kts | 0° |
| 2026-05-09 03:02 | 7.55271 | -75.45007 | 21942 ft | 395 kts | 359° |
| 2026-05-09 03:02 | 7.58019 | -75.45074 | 21941 ft | 395 kts | 360° |
| 2026-05-09 03:02 | 7.60766 | -75.45141 | 21941 ft | 395 kts | 360° |
| 2026-05-09 03:03 | 7.63513 | -75.45206 | 21940 ft | 395 kts | 360° |
| 2026-05-09 03:03 | 7.66227 | -75.45268 | 21920 ft | 395 kts | 360° |
| 2026-05-09 03:03 | 7.68988 | -75.45330 | 21662 ft | 399 kts | 360° |
| 2026-05-09 03:03 | 7.71745 | -75.45390 | 21291 ft | 394 kts | 360° |
| 2026-05-09 03:04 | 7.74471 | -75.45450 | 20867 ft | 391 kts | 360° |
| 2026-05-09 03:04 | 7.77182 | -75.45517 | 20471 ft | 387 kts | 359° |
| 2026-05-09 03:04 | 7.79857 | -75.45587 | 20035 ft | 384 kts | 359° |
| 2026-05-09 03:04 | 7.82514 | -75.45656 | 19644 ft | 379 kts | 359° |
| 2026-05-09 03:05 | 7.85150 | -75.45798 | 19166 ft | 379 kts | 352° |
| 2026-05-09 03:05 | 7.87706 | -75.46411 | 18709 ft | 378 kts | 344° |
| 2026-05-09 03:05 | 7.90218 | -75.47160 | 18267 ft | 376 kts | 343° |
| 2026-05-09 03:05 | 7.92692 | -75.47894 | 18128 ft | 364 kts | 343° |
| 2026-05-09 03:06 | 7.94279 | -75.48365 | 18034 ft | 356 kts | 343° |
| 2026-05-09 03:06 | 7.97398 | -75.49290 | 17747 ft | 345 kts | 344° |
| 2026-05-09 03:06 | 7.99691 | -75.49968 | 17394 ft | 341 kts | 344° |
| 2026-05-09 03:06 | 8.01188 | -75.50411 | 17068 ft | 337 kts | 344° |
| 2026-05-09 03:07 | 8.04161 | -75.51291 | 16211 ft | 333 kts | 345° |
| 2026-05-09 03:07 | 8.05663 | -75.51736 | 15796 ft | 331 kts | 345° |
| 2026-05-09 03:07 | 8.07868 | -75.52389 | 15195 ft | 329 kts | 346° |
| 2026-05-09 03:07 | 8.10054 | -75.53038 | 14892 ft | 326 kts | 347° |
| 2026-05-09 03:08 | 8.12229 | -75.53684 | 14517 ft | 325 kts | 347° |
| 2026-05-09 03:08 | 8.14394 | -75.54328 | 14171 ft | 324 kts | 347° |
| 2026-05-09 03:08 | 8.16558 | -75.54970 | 13844 ft | 322 kts | 347° |
| 2026-05-09 03:08 | 8.18701 | -75.55607 | 13449 ft | 320 kts | 347° |
| 2026-05-09 03:09 | 8.20803 | -75.56231 | 12971 ft | 318 kts | 347° |
| 2026-05-09 03:09 | 8.22918 | -75.56859 | 12491 ft | 316 kts | 347° |
| 2026-05-09 03:09 | 8.25046 | -75.57488 | 12015 ft | 314 kts | 347° |
| 2026-05-09 03:09 | 8.27127 | -75.58103 | 11551 ft | 311 kts | 347° |
| 2026-05-09 03:10 | 8.29174 | -75.58710 | 11187 ft | 309 kts | 347° |
| 2026-05-09 03:10 | 8.31268 | -75.59331 | 10822 ft | 308 kts | 347° |
| 2026-05-09 03:10 | 8.33302 | -75.59935 | 10412 ft | 310 kts | 347° |
| 2026-05-09 03:10 | 8.35350 | -75.60542 | 10179 ft | 305 kts | 347° |
| 2026-05-09 03:11 | 8.37381 | -75.61145 | 9836 ft | 304 kts | 347° |
| 2026-05-09 03:11 | 8.39410 | -75.61748 | 9477 ft | 303 kts | 347° |
| 2026-05-09 03:11 | 8.41421 | -75.62345 | 9029 ft | 300 kts | 347° |
| 2026-05-09 03:11 | 8.43417 | -75.62935 | 8569 ft | 298 kts | 347° |
| 2026-05-09 03:12 | 8.45403 | -75.63523 | 8125 ft | 296 kts | 347° |
| 2026-05-09 03:12 | 8.47380 | -75.64112 | 7642 ft | 295 kts | 347° |
| 2026-05-09 03:12 | 8.49335 | -75.64696 | 7256 ft | 292 kts | 347° |
| 2026-05-09 03:12 | 8.51270 | -75.65273 | 6883 ft | 287 kts | 346° |
| 2026-05-09 03:13 | 8.55054 | -75.66396 | 6143 ft | 277 kts | 346° |
| 2026-05-09 03:13 | 8.56872 | -75.66936 | 5774 ft | 268 kts | 346° |
| 2026-05-09 03:13 | 8.58635 | -75.67460 | 5433 ft | 259 kts | 346° |
| 2026-05-09 03:14 | 8.60367 | -75.67972 | 5099 ft | 260 kts | 346° |
| 2026-05-09 03:14 | 8.62109 | -75.68487 | 4759 ft | 262 kts | 346° |
| 2026-05-09 03:14 | 8.63840 | -75.69000 | 4407 ft | 255 kts | 346° |
| 2026-05-09 03:14 | 8.65510 | -75.69497 | 4081 ft | 244 kts | 346° |
| 2026-05-09 03:15 | 8.67104 | -75.69971 | 3768 ft | 234 kts | 346° |
| 2026-05-09 03:15 | 8.68644 | -75.70437 | 3469 ft | 230 kts | 342° |
| 2026-05-09 03:15 | 8.70000 | -75.71286 | 3168 ft | 232 kts | 320° |
| 2026-05-09 03:15 | 8.71195 | -75.72378 | 2857 ft | 231 kts | 320° |
| 2026-05-09 03:16 | 8.72386 | -75.73468 | 2550 ft | 229 kts | 319° |
| 2026-05-09 03:16 | 8.73543 | -75.74526 | 2244 ft | 219 kts | 319° |
| 2026-05-09 03:16 | 8.74647 | -75.75537 | 1959 ft | 209 kts | 318° |
| 2026-05-09 03:16 | 8.75695 | -75.76497 | 1728 ft | 197 kts | 318° |
| 2026-05-09 03:17 | 8.76683 | -75.77402 | 1433 ft | 185 kts | 318° |
| 2026-05-09 03:17 | 8.77607 | -75.78246 | 1168 ft | 174 kts | 317° |
| 2026-05-09 03:17 | 8.78448 | -75.79013 | 952 ft | 153 kts | 319° |
| 2026-05-09 03:17 | 8.79203 | -75.79702 | 747 ft | 142 kts | 318° |
| 2026-05-09 03:18 | 8.79937 | -75.80374 | 559 ft | 143 kts | 318° |
| 2026-05-09 03:18 | 8.80660 | -75.81035 | 355 ft | 142 kts | 317° |
| 2026-05-09 03:18 | 8.81385 | -75.81700 | 148 ft | 140 kts | 315° |
| 2026-05-09 03:18 | 8.82086 | -75.82336 | 32 ft | 119 kts | 318° |
| 2026-05-09 03:19 | 8.82573 | -75.82783 | 31 ft | 70 kts | 317° |
| 2026-05-09 03:19 | 8.82783 | -75.82979 | 31 ft | 28 kts | 318° |
| 2026-05-09 03:19 | 8.82929 | -75.83089 | 31 ft | 21 kts | 330° |
| 2026-05-09 03:19 | 8.82959 | -75.83127 | 33 ft | 3 kts | 183° |
| 2026-05-09 03:20 | 8.82918 | -75.83092 | 32 ft | 11 kts | 140° |
| 2026-05-09 03:20 | 8.82814 | -75.82999 | 31 ft | 26 kts | 138° |
| 2026-05-09 03:20 | 8.82686 | -75.82886 | 31 ft | 23 kts | 141° |
| 2026-05-09 03:20 | 8.82567 | -75.82776 | 31 ft | 23 kts | 138° |
| 2026-05-09 03:21 | 8.82478 | -75.82688 | 32 ft | 16 kts | 126° |
| 2026-05-09 03:21 | 8.82464 | -75.82604 | 34 ft | 5 kts | 68° |
| 2026-05-09 03:21 | 8.82466 | -75.82600 | 34 ft | 1 kts | 57° |
| 2026-05-09 03:21 | 8.82479 | -75.82577 | 35 ft | 6 kts | 79° |
| 2026-05-09 03:22 | 8.82493 | -75.82547 | 36 ft | 4 kts | 54° |
| 2026-05-09 03:22 | 8.82510 | -75.82528 | 37 ft | 3 kts | 49° |
| 2026-05-09 03:22 | 8.82513 | -75.82524 | 37 ft | 1 kts | 48° |
| 2026-05-09 03:22 | 8.82514 | -75.82523 | 37 ft | 0 kts | 49° |